sensor_id;sensor_type;location;lat;lon;timestamp;pressure;altitude;pressure_sealevel;temperature;humidity
76808;BME280;65758;45.458;11.062;2023-06-22T00:01:19;101215.07;;;26.47;50.00
76808;BME280;65758;45.458;11.062;2023-06-22T00:03:48;101211.06;;;26.44;50.17
76808;BME280;65758;45.458;11.062;2023-06-22T00:06:15;101212.59;;;26.41;50.10
76808;BME280;65758;45.458;11.062;2023-06-22T00:08:42;101209.73;;;26.40;50.26
76808;BME280;65758;45.458;11.062;2023-06-22T00:11:09;101212.19;;;26.40;50.35
76808;BME280;65758;45.458;11.062;2023-06-22T00:13:35;101217.55;;;26.41;50.54
76808;BME280;65758;45.458;11.062;2023-06-22T00:16:03;101214.77;;;26.46;50.88
76808;BME280;65758;45.458;11.062;2023-06-22T00:18:29;101213.68;;;26.47;51.16
76808;BME280;65758;45.458;11.062;2023-06-22T00:20:57;101212.31;;;26.45;50.96
76808;BME280;65758;45.458;11.062;2023-06-22T00:23:25;101215.43;;;26.42;51.01
76808;BME280;65758;45.458;11.062;2023-06-22T00:25:52;101213.88;;;26.40;50.92
76808;BME280;65758;45.458;11.062;2023-06-22T00:28:19;101216.54;;;26.39;50.89
76808;BME280;65758;45.458;11.062;2023-06-22T00:30:48;101212.10;;;26.41;51.54
76808;BME280;65758;45.458;11.062;2023-06-22T00:33:17;101213.57;;;26.45;51.55
76808;BME280;65758;45.458;11.062;2023-06-22T00:35:44;101211.27;;;26.47;51.97
76808;BME280;65758;45.458;11.062;2023-06-22T00:38:11;101208.39;;;26.50;52.18
76808;BME280;65758;45.458;11.062;2023-06-22T00:40:41;101202.23;;;26.52;52.34
76808;BME280;65758;45.458;11.062;2023-06-22T00:43:07;101200.90;;;26.54;52.45
76808;BME280;65758;45.458;11.062;2023-06-22T00:45:34;101204.15;;;26.50;52.36
76808;BME280;65758;45.458;11.062;2023-06-22T00:48:02;101202.42;;;26.48;52.55
76808;BME280;65758;45.458;11.062;2023-06-22T00:50:32;101202.63;;;26.48;52.65
76808;BME280;65758;45.458;11.062;2023-06-22T00:53:05;101197.20;;;26.49;52.64
76808;BME280;65758;45.458;11.062;2023-06-22T00:55:39;101195.51;;;26.52;52.67
76808;BME280;65758;45.458;11.062;2023-06-22T00:58:11;101189.61;;;26.54;52.59
76808;BME280;65758;45.458;11.062;2023-06-22T01:00:39;101186.73;;;26.56;52.21
76808;BME280;65758;45.458;11.062;2023-06-22T01:03:07;101183.38;;;26.58;51.74
76808;BME280;65758;45.458;11.062;2023-06-22T01:05:37;101183.16;;;26.58;51.49
76808;BME280;65758;45.458;11.062;2023-06-22T01:11:19;101187.57;;;26.57;51.42
76808;BME280;65758;45.458;11.062;2023-06-22T01:14:12;101192.08;;;26.54;51.36
76808;BME280;65758;45.458;11.062;2023-06-22T01:16:41;101187.59;;;26.51;51.51
76808;BME280;65758;45.458;11.062;2023-06-22T01:22:29;101187.23;;;26.47;51.62
76808;BME280;65758;45.458;11.062;2023-06-22T01:30:18;101192.58;;;26.40;51.82
76808;BME280;65758;45.458;11.062;2023-06-22T01:32:47;101191.98;;;26.38;51.63
76808;BME280;65758;45.458;11.062;2023-06-22T01:35:15;101195.48;;;26.38;51.64
76808;BME280;65758;45.458;11.062;2023-06-22T01:37:43;101199.33;;;26.38;51.62
76808;BME280;65758;45.458;11.062;2023-06-22T01:40:11;101198.88;;;26.37;51.81
76808;BME280;65758;45.458;11.062;2023-06-22T01:42:39;101199.58;;;26.35;51.76
76808;BME280;65758;45.458;11.062;2023-06-22T01:45:07;101201.15;;;26.33;51.81
76808;BME280;65758;45.458;11.062;2023-06-22T01:47:38;101198.36;;;26.30;51.93
76808;BME280;65758;45.458;11.062;2023-06-22T01:50:06;101196.23;;;26.26;51.87
76808;BME280;65758;45.458;11.062;2023-06-22T01:52:33;101199.98;;;26.22;52.07
76808;BME280;65758;45.458;11.062;2023-06-22T01:55:01;101201.86;;;26.17;52.18
76808;BME280;65758;45.458;11.062;2023-06-22T01:57:28;101206.63;;;26.12;52.38
76808;BME280;65758;45.458;11.062;2023-06-22T02:02:28;101205.91;;;26.04;52.49
76808;BME280;65758;45.458;11.062;2023-06-22T02:05:01;101201.60;;;26.01;52.61
76808;BME280;65758;45.458;11.062;2023-06-22T02:07:33;101199.02;;;25.97;52.69
76808;BME280;65758;45.458;11.062;2023-06-22T02:10:02;101195.36;;;25.91;52.78
76808;BME280;65758;45.458;11.062;2023-06-22T02:12:31;101192.55;;;25.86;52.82
76808;BME280;65758;45.458;11.062;2023-06-22T02:14:59;101192.35;;;25.83;53.03
76808;BME280;65758;45.458;11.062;2023-06-22T02:17:29;101187.61;;;25.80;53.17
76808;BME280;65758;45.458;11.062;2023-06-22T02:20:02;101188.33;;;25.78;53.07
76808;BME280;65758;45.458;11.062;2023-06-22T02:22:31;101193.48;;;25.79;53.06
76808;BME280;65758;45.458;11.062;2023-06-22T02:24:58;101197.55;;;25.77;53.17
76808;BME280;65758;45.458;11.062;2023-06-22T02:27:25;101200.86;;;25.76;53.16
76808;BME280;65758;45.458;11.062;2023-06-22T02:29:51;101200.32;;;25.76;53.17
76808;BME280;65758;45.458;11.062;2023-06-22T02:32:18;101204.56;;;25.75;53.19
76808;BME280;65758;45.458;11.062;2023-06-22T02:34:45;101201.95;;;25.73;53.10
76808;BME280;65758;45.458;11.062;2023-06-22T02:37:15;101203.53;;;25.71;53.15
76808;BME280;65758;45.458;11.062;2023-06-22T02:39:42;101200.85;;;25.67;53.22
76808;BME280;65758;45.458;11.062;2023-06-22T02:42:09;101201.41;;;25.65;53.24
76808;BME280;65758;45.458;11.062;2023-06-22T02:44:37;101201.73;;;25.66;53.22
76808;BME280;65758;45.458;11.062;2023-06-22T02:47:04;101198.96;;;25.69;53.10
76808;BME280;65758;45.458;11.062;2023-06-22T02:49:31;101205.09;;;25.68;53.26
76808;BME280;65758;45.458;11.062;2023-06-22T02:51:59;101206.98;;;25.67;53.10
76808;BME280;65758;45.458;11.062;2023-06-22T02:54:26;101212.39;;;25.68;53.34
76808;BME280;65758;45.458;11.062;2023-06-22T02:56:53;101220.73;;;25.72;53.26
76808;BME280;65758;45.458;11.062;2023-06-22T02:59:20;101220.67;;;25.77;53.21
76808;BME280;65758;45.458;11.062;2023-06-22T03:01:56;101219.19;;;25.82;53.09
76808;BME280;65758;45.458;11.062;2023-06-22T03:04:26;101220.67;;;25.85;53.50
76808;BME280;65758;45.458;11.062;2023-06-22T03:06:53;101218.80;;;25.88;53.89
76808;BME280;65758;45.458;11.062;2023-06-22T03:09:20;101215.02;;;25.90;54.39
76808;BME280;65758;45.458;11.062;2023-06-22T03:11:47;101216.86;;;25.90;54.79
76808;BME280;65758;45.458;11.062;2023-06-22T03:14:14;101219.02;;;25.89;55.02
76808;BME280;65758;45.458;11.062;2023-06-22T03:16:41;101219.40;;;25.87;54.79
76808;BME280;65758;45.458;11.062;2023-06-22T03:19:08;101218.57;;;25.82;54.60
76808;BME280;65758;45.458;11.062;2023-06-22T03:21:35;101218.02;;;25.79;54.79
76808;BME280;65758;45.458;11.062;2023-06-22T03:24:04;101223.60;;;25.77;55.02
76808;BME280;65758;45.458;11.062;2023-06-22T03:26:31;101222.11;;;25.76;54.84
76808;BME280;65758;45.458;11.062;2023-06-22T03:28:58;101219.75;;;25.77;54.71
76808;BME280;65758;45.458;11.062;2023-06-22T03:31:29;101218.50;;;25.78;54.60
76808;BME280;65758;45.458;11.062;2023-06-22T03:33:56;101219.17;;;25.78;54.38
76808;BME280;65758;45.458;11.062;2023-06-22T03:36:23;101218.38;;;25.78;54.30
76808;BME280;65758;45.458;11.062;2023-06-22T03:38:51;101221.31;;;25.78;54.06
76808;BME280;65758;45.458;11.062;2023-06-22T03:41:18;101221.33;;;25.77;53.87
76808;BME280;65758;45.458;11.062;2023-06-22T03:43:46;101220.50;;;25.76;53.87
76808;BME280;65758;45.458;11.062;2023-06-22T03:46:14;101224.13;;;25.77;53.96
76808;BME280;65758;45.458;11.062;2023-06-22T03:48:42;101216.44;;;25.77;53.82
76808;BME280;65758;45.458;11.062;2023-06-22T03:51:08;101215.22;;;25.76;53.88
76808;BME280;65758;45.458;11.062;2023-06-22T03:53:36;101217.15;;;25.78;53.99
76808;BME280;65758;45.458;11.062;2023-06-22T03:56:03;101219.23;;;25.78;53.81
76808;BME280;65758;45.458;11.062;2023-06-22T03:58:30;101222.03;;;25.78;53.79
76808;BME280;65758;45.458;11.062;2023-06-22T04:00:59;101220.39;;;25.80;53.73
76808;BME280;65758;45.458;11.062;2023-06-22T04:03:26;101220.39;;;25.83;53.82
76808;BME280;65758;45.458;11.062;2023-06-22T04:05:53;101221.34;;;25.86;53.60
76808;BME280;65758;45.458;11.062;2023-06-22T04:08:20;101211.23;;;25.88;53.60
76808;BME280;65758;45.458;11.062;2023-06-22T04:10:47;101207.14;;;25.93;53.57
76808;BME280;65758;45.458;11.062;2023-06-22T04:13:14;101207.17;;;25.96;53.30
76808;BME280;65758;45.458;11.062;2023-06-22T04:15:41;101201.95;;;25.96;53.16
76808;BME280;65758;45.458;11.062;2023-06-22T04:18:07;101206.86;;;25.98;53.21
76808;BME280;65758;45.458;11.062;2023-06-22T04:20:34;101205.48;;;26.00;53.35
76808;BME280;65758;45.458;11.062;2023-06-22T04:23:02;101211.06;;;26.04;53.22
76808;BME280;65758;45.458;11.062;2023-06-22T04:25:29;101211.63;;;26.08;53.32
76808;BME280;65758;45.458;11.062;2023-06-22T04:27:55;101208.91;;;26.16;52.96
76808;BME280;65758;45.458;11.062;2023-06-22T04:30:22;101201.91;;;26.23;52.95
76808;BME280;65758;45.458;11.062;2023-06-22T04:32:49;101199.55;;;26.25;52.61
76808;BME280;65758;45.458;11.062;2023-06-22T04:35:25;101208.83;;;26.26;52.54
76808;BME280;65758;45.458;11.062;2023-06-22T04:37:53;101209.79;;;26.29;52.30
76808;BME280;65758;45.458;11.062;2023-06-22T04:40:22;101198.91;;;26.30;52.18
76808;BME280;65758;45.458;11.062;2023-06-22T04:42:49;101193.08;;;26.30;52.37
76808;BME280;65758;45.458;11.062;2023-06-22T04:45:20;101196.79;;;26.29;52.29
76808;BME280;65758;45.458;11.062;2023-06-22T04:47:48;101196.16;;;26.31;52.40
76808;BME280;65758;45.458;11.062;2023-06-22T04:50:15;101197.17;;;26.36;52.24
76808;BME280;65758;45.458;11.062;2023-06-22T04:52:42;101205.45;;;26.44;52.52
76808;BME280;65758;45.458;11.062;2023-06-22T04:55:09;101205.84;;;26.52;52.42
76808;BME280;65758;45.458;11.062;2023-06-22T04:57:35;101206.45;;;26.59;52.39
76808;BME280;65758;45.458;11.062;2023-06-22T05:00:06;101207.34;;;26.67;52.30
76808;BME280;65758;45.458;11.062;2023-06-22T05:02:40;101207.77;;;26.74;52.00
76808;BME280;65758;45.458;11.062;2023-06-22T05:05:08;101206.59;;;26.74;51.56
76808;BME280;65758;45.458;11.062;2023-06-22T05:07:36;101210.48;;;26.75;51.56
76808;BME280;65758;45.458;11.062;2023-06-22T05:10:03;101211.68;;;26.77;52.00
76808;BME280;65758;45.458;11.062;2023-06-22T05:12:31;101210.45;;;26.81;52.63
76808;BME280;65758;45.458;11.062;2023-06-22T05:14:58;101216.45;;;26.83;52.78
76808;BME280;65758;45.458;11.062;2023-06-22T05:17:25;101217.16;;;26.84;53.13
76808;BME280;65758;45.458;11.062;2023-06-22T05:19:52;101220.88;;;26.90;53.69
76808;BME280;65758;45.458;11.062;2023-06-22T05:22:19;101227.54;;;26.97;53.71
76808;BME280;65758;45.458;11.062;2023-06-22T05:24:46;101220.31;;;27.04;54.19
76808;BME280;65758;45.458;11.062;2023-06-22T05:27:14;101215.27;;;27.12;54.19
76808;BME280;65758;45.458;11.062;2023-06-22T05:29:41;101216.50;;;27.22;54.28
76808;BME280;65758;45.458;11.062;2023-06-22T05:32:09;101217.15;;;27.32;54.00
76808;BME280;65758;45.458;11.062;2023-06-22T05:34:36;101220.61;;;27.42;53.79
76808;BME280;65758;45.458;11.062;2023-06-22T05:37:03;101217.85;;;27.51;53.64
76808;BME280;65758;45.458;11.062;2023-06-22T05:39:30;101222.19;;;27.60;53.63
76808;BME280;65758;45.458;11.062;2023-06-22T05:41:57;101219.31;;;27.67;53.46
76808;BME280;65758;45.458;11.062;2023-06-22T05:44:24;101215.65;;;27.74;53.41
76808;BME280;65758;45.458;11.062;2023-06-22T05:46:51;101216.27;;;27.82;53.30
76808;BME280;65758;45.458;11.062;2023-06-22T05:49:18;101215.54;;;27.91;53.18
76808;BME280;65758;45.458;11.062;2023-06-22T05:51:45;101214.18;;;27.99;52.96
76808;BME280;65758;45.458;11.062;2023-06-22T05:54:11;101215.12;;;28.07;52.97
76808;BME280;65758;45.458;11.062;2023-06-22T05:56:40;101214.16;;;28.16;53.01
76808;BME280;65758;45.458;11.062;2023-06-22T05:59:07;101212.98;;;28.27;52.88
76808;BME280;65758;45.458;11.062;2023-06-22T06:01:34;101207.36;;;28.40;52.69
76808;BME280;65758;45.458;11.062;2023-06-22T06:04:03;101206.24;;;28.55;52.02
76808;BME280;65758;45.458;11.062;2023-06-22T06:06:31;101211.55;;;28.68;51.81
76808;BME280;65758;45.458;11.062;2023-06-22T06:08:58;101210.79;;;28.83;51.30
76808;BME280;65758;45.458;11.062;2023-06-22T06:11:26;101210.61;;;28.98;50.49
76808;BME280;65758;45.458;11.062;2023-06-22T06:13:53;101208.52;;;29.13;50.29
76808;BME280;65758;45.458;11.062;2023-06-22T06:16:21;101200.52;;;29.26;50.21
76808;BME280;65758;45.458;11.062;2023-06-22T06:18:48;101200.16;;;29.41;49.79
76808;BME280;65758;45.458;11.062;2023-06-22T06:21:17;101199.81;;;29.51;49.27
76808;BME280;65758;45.458;11.062;2023-06-22T06:23:47;101202.14;;;29.59;48.92
76808;BME280;65758;45.458;11.062;2023-06-22T06:26:14;101205.40;;;29.62;48.99
76808;BME280;65758;45.458;11.062;2023-06-22T06:28:43;101208.94;;;29.63;49.02
76808;BME280;65758;45.458;11.062;2023-06-22T06:31:10;101208.56;;;29.66;48.98
76808;BME280;65758;45.458;11.062;2023-06-22T06:33:38;101212.35;;;29.68;48.88
76808;BME280;65758;45.458;11.062;2023-06-22T06:36:08;101210.65;;;29.68;49.04
76808;BME280;65758;45.458;11.062;2023-06-22T06:38:35;101214.11;;;29.68;49.05
76808;BME280;65758;45.458;11.062;2023-06-22T06:41:01;101214.51;;;29.68;48.86
76808;BME280;65758;45.458;11.062;2023-06-22T06:43:28;101214.80;;;29.67;48.78
76808;BME280;65758;45.458;11.062;2023-06-22T06:45:55;101214.05;;;29.68;48.66
76808;BME280;65758;45.458;11.062;2023-06-22T06:48:22;101208.17;;;29.71;48.39
76808;BME280;65758;45.458;11.062;2023-06-22T06:50:49;101209.93;;;29.72;48.45
76808;BME280;65758;45.458;11.062;2023-06-22T06:53:16;101212.29;;;29.71;48.41
76808;BME280;65758;45.458;11.062;2023-06-22T06:55:43;101213.58;;;29.69;48.44
76808;BME280;65758;45.458;11.062;2023-06-22T06:58:12;101213.48;;;29.68;48.41
76808;BME280;65758;45.458;11.062;2023-06-22T07:00:39;101212.05;;;29.71;48.70
76808;BME280;65758;45.458;11.062;2023-06-22T07:03:06;101216.64;;;29.77;48.75
76808;BME280;65758;45.458;11.062;2023-06-22T07:05:33;101214.40;;;29.83;48.47
76808;BME280;65758;45.458;11.062;2023-06-22T07:08:01;101215.90;;;29.88;48.18
76808;BME280;65758;45.458;11.062;2023-06-22T07:10:28;101214.35;;;29.92;48.02
76808;BME280;65758;45.458;11.062;2023-06-22T07:12:56;101203.80;;;29.97;48.22
76808;BME280;65758;45.458;11.062;2023-06-22T07:15:24;101198.45;;;30.07;48.16
76808;BME280;65758;45.458;11.062;2023-06-22T07:17:51;101193.52;;;30.17;48.24
76808;BME280;65758;45.458;11.062;2023-06-22T07:20:18;101191.86;;;30.27;47.85
76808;BME280;65758;45.458;11.062;2023-06-22T07:22:46;101191.61;;;30.36;47.71
76808;BME280;65758;45.458;11.062;2023-06-22T07:25:13;101187.84;;;30.43;47.63
76808;BME280;65758;45.458;11.062;2023-06-22T07:27:56;101182.84;;;30.47;47.59
76808;BME280;65758;45.458;11.062;2023-06-22T07:30:23;101179.15;;;30.53;47.41
76808;BME280;65758;45.458;11.062;2023-06-22T07:32:50;101186.95;;;30.61;47.48
76808;BME280;65758;45.458;11.062;2023-06-22T07:35:17;101186.27;;;30.71;47.53
76808;BME280;65758;45.458;11.062;2023-06-22T07:37:44;101187.89;;;30.83;47.25
76808;BME280;65758;45.458;11.062;2023-06-22T07:40:11;101188.00;;;30.92;46.81
76808;BME280;65758;45.458;11.062;2023-06-22T07:42:38;101185.71;;;30.96;46.52
76808;BME280;65758;45.458;11.062;2023-06-22T07:45:06;101185.77;;;31.01;46.90
76808;BME280;65758;45.458;11.062;2023-06-22T07:47:35;101188.88;;;31.07;46.53
76808;BME280;65758;45.458;11.062;2023-06-22T07:50:03;101187.46;;;31.18;46.29
76808;BME280;65758;45.458;11.062;2023-06-22T07:52:30;101187.06;;;31.31;45.99
76808;BME280;65758;45.458;11.062;2023-06-22T07:54:58;101189.11;;;31.45;45.69
76808;BME280;65758;45.458;11.062;2023-06-22T07:57:25;101187.87;;;31.61;45.69
76808;BME280;65758;45.458;11.062;2023-06-22T08:00:01;101191.61;;;31.81;45.07
76808;BME280;65758;45.458;11.062;2023-06-22T08:02:38;101190.27;;;32.01;44.91
76808;BME280;65758;45.458;11.062;2023-06-22T08:05:06;101192.58;;;32.24;44.35
76808;BME280;65758;45.458;11.062;2023-06-22T08:07:47;101192.83;;;32.48;43.86
76808;BME280;65758;45.458;11.062;2023-06-22T08:10:14;101186.98;;;32.71;43.61
76808;BME280;65758;45.458;11.062;2023-06-22T08:12:42;101189.40;;;32.89;43.07
76808;BME280;65758;45.458;11.062;2023-06-22T08:15:09;101194.00;;;33.04;42.98
76808;BME280;65758;45.458;11.062;2023-06-22T08:17:37;101194.59;;;33.18;42.68
76808;BME280;65758;45.458;11.062;2023-06-22T08:20:06;101195.75;;;33.32;42.68
76808;BME280;65758;45.458;11.062;2023-06-22T08:22:36;101198.85;;;33.44;42.62
76808;BME280;65758;45.458;11.062;2023-06-22T08:25:04;101196.45;;;33.59;41.98
76808;BME280;65758;45.458;11.062;2023-06-22T08:27:31;101197.61;;;33.73;41.77
76808;BME280;65758;45.458;11.062;2023-06-22T08:30:01;101196.54;;;33.92;40.63
76808;BME280;65758;45.458;11.062;2023-06-22T08:32:28;101193.78;;;34.11;40.23
76808;BME280;65758;45.458;11.062;2023-06-22T08:34:56;101195.25;;;34.31;39.77
76808;BME280;65758;45.458;11.062;2023-06-22T08:37:24;101189.42;;;34.44;39.03
76808;BME280;65758;45.458;11.062;2023-06-22T08:40:03;101189.23;;;34.52;38.76
76808;BME280;65758;45.458;11.062;2023-06-22T08:42:49;101186.55;;;34.61;38.72
76808;BME280;65758;45.458;11.062;2023-06-22T08:45:16;101182.23;;;34.66;38.32
76808;BME280;65758;45.458;11.062;2023-06-22T08:47:43;101181.39;;;34.75;37.98
76808;BME280;65758;45.458;11.062;2023-06-22T08:50:11;101183.79;;;34.87;37.82
76808;BME280;65758;45.458;11.062;2023-06-22T08:52:40;101185.10;;;35.06;38.08
76808;BME280;65758;45.458;11.062;2023-06-22T08:55:10;101188.38;;;35.22;37.11
76808;BME280;65758;45.458;11.062;2023-06-22T08:57:37;101187.86;;;35.21;36.81
76808;BME280;65758;45.458;11.062;2023-06-22T09:00:09;101191.02;;;35.15;36.83
76808;BME280;65758;45.458;11.062;2023-06-22T09:02:47;101189.91;;;35.13;36.83
76808;BME280;65758;45.458;11.062;2023-06-22T09:05:15;101182.80;;;35.05;36.93
76808;BME280;65758;45.458;11.062;2023-06-22T09:07:42;101177.51;;;34.95;37.18
76808;BME280;65758;45.458;11.062;2023-06-22T09:10:10;101177.99;;;34.95;37.16
76808;BME280;65758;45.458;11.062;2023-06-22T09:12:37;101175.68;;;34.98;37.00
76808;BME280;65758;45.458;11.062;2023-06-22T09:15:05;101171.48;;;34.94;37.31
76808;BME280;65758;45.458;11.062;2023-06-22T09:17:38;101174.97;;;34.84;37.32
76808;BME280;65758;45.458;11.062;2023-06-22T09:20:05;101174.02;;;34.72;37.64
76808;BME280;65758;45.458;11.062;2023-06-22T09:22:33;101168.36;;;34.69;37.63
76808;BME280;65758;45.458;11.062;2023-06-22T09:25:00;101172.23;;;34.66;37.36
76808;BME280;65758;45.458;11.062;2023-06-22T09:27:28;101173.44;;;34.62;37.56
76808;BME280;65758;45.458;11.062;2023-06-22T09:29:54;101168.74;;;34.63;37.41
76808;BME280;65758;45.458;11.062;2023-06-22T09:32:21;101166.86;;;34.85;36.87
76808;BME280;65758;45.458;11.062;2023-06-22T09:34:48;101168.38;;;35.09;36.84
76808;BME280;65758;45.458;11.062;2023-06-22T09:37:15;101165.70;;;35.35;36.12
76808;BME280;65758;45.458;11.062;2023-06-22T09:39:42;101160.85;;;35.59;35.81
76808;BME280;65758;45.458;11.062;2023-06-22T09:42:09;101157.36;;;35.83;35.77
76808;BME280;65758;45.458;11.062;2023-06-22T09:44:36;101157.52;;;36.09;35.59
76808;BME280;65758;45.458;11.062;2023-06-22T09:47:03;101153.54;;;36.31;35.20
76808;BME280;65758;45.458;11.062;2023-06-22T09:49:30;101150.14;;;36.50;34.73
76808;BME280;65758;45.458;11.062;2023-06-22T09:52:14;101149.28;;;36.59;34.35
76808;BME280;65758;45.458;11.062;2023-06-22T09:54:41;101147.52;;;36.62;34.49
76808;BME280;65758;45.458;11.062;2023-06-22T09:57:08;101144.66;;;36.72;34.29
76808;BME280;65758;45.458;11.062;2023-06-22T09:59:34;101147.33;;;36.89;33.69
76808;BME280;65758;45.458;11.062;2023-06-22T10:02:01;101135.95;;;36.93;32.71
76808;BME280;65758;45.458;11.062;2023-06-22T10:04:28;101124.36;;;36.82;32.38
76808;BME280;65758;45.458;11.062;2023-06-22T10:06:56;101116.23;;;36.84;31.40
76808;BME280;65758;45.458;11.062;2023-06-22T10:09:23;101116.49;;;36.88;31.46
76808;BME280;65758;45.458;11.062;2023-06-22T10:11:50;101116.71;;;36.96;31.45
76808;BME280;65758;45.458;11.062;2023-06-22T10:14:17;101113.34;;;37.10;31.31
76808;BME280;65758;45.458;11.062;2023-06-22T10:16:43;101105.17;;;37.23;31.53
76808;BME280;65758;45.458;11.062;2023-06-22T10:19:13;101102.14;;;37.33;31.31
76808;BME280;65758;45.458;11.062;2023-06-22T10:21:39;101100.26;;;37.36;30.93
76808;BME280;65758;45.458;11.062;2023-06-22T10:24:06;101097.64;;;37.31;30.93
76808;BME280;65758;45.458;11.062;2023-06-22T10:26:33;101088.23;;;37.30;31.08
76808;BME280;65758;45.458;11.062;2023-06-22T10:29:03;101081.98;;;37.35;31.03
76808;BME280;65758;45.458;11.062;2023-06-22T10:31:41;101079.98;;;37.43;30.65
76808;BME280;65758;45.458;11.062;2023-06-22T10:34:08;101078.50;;;37.53;30.76
76808;BME280;65758;45.458;11.062;2023-06-22T10:36:35;101082.71;;;37.65;30.60
76808;BME280;65758;45.458;11.062;2023-06-22T10:39:02;101082.58;;;37.76;30.43
76808;BME280;65758;45.458;11.062;2023-06-22T10:41:29;101084.48;;;37.87;30.19
76808;BME280;65758;45.458;11.062;2023-06-22T10:43:57;101082.39;;;37.93;30.25
76808;BME280;65758;45.458;11.062;2023-06-22T10:46:25;101077.93;;;37.99;30.01
76808;BME280;65758;45.458;11.062;2023-06-22T10:48:54;101072.89;;;38.09;29.50
76808;BME280;65758;45.458;11.062;2023-06-22T10:51:24;101070.77;;;38.19;29.34
76808;BME280;65758;45.458;11.062;2023-06-22T10:53:50;101071.02;;;38.25;29.23
76808;BME280;65758;45.458;11.062;2023-06-22T10:56:18;101065.64;;;38.31;29.15
76808;BME280;65758;45.458;11.062;2023-06-22T10:58:45;101073.33;;;38.38;29.04
76808;BME280;65758;45.458;11.062;2023-06-22T11:01:12;101077.27;;;38.47;28.93
76808;BME280;65758;45.458;11.062;2023-06-22T11:03:59;101074.50;;;38.58;28.94
76808;BME280;65758;45.458;11.062;2023-06-22T11:06:26;101073.27;;;38.59;28.84
76808;BME280;65758;45.458;11.062;2023-06-22T11:08:53;101073.67;;;38.65;29.68
76808;BME280;65758;45.458;11.062;2023-06-22T11:11:32;101074.55;;;38.80;29.93
76808;BME280;65758;45.458;11.062;2023-06-22T11:13:59;101075.70;;;38.90;29.83
76808;BME280;65758;45.458;11.062;2023-06-22T11:16:27;101073.35;;;38.87;29.65
76808;BME280;65758;45.458;11.062;2023-06-22T11:18:54;101071.36;;;38.83;29.60
76808;BME280;65758;45.458;11.062;2023-06-22T11:21:20;101072.94;;;38.87;29.60
76808;BME280;65758;45.458;11.062;2023-06-22T11:23:47;101079.30;;;38.93;29.83
76808;BME280;65758;45.458;11.062;2023-06-22T11:26:15;101077.17;;;38.98;29.94
76808;BME280;65758;45.458;11.062;2023-06-22T11:28:42;101075.61;;;38.99;29.72
76808;BME280;65758;45.458;11.062;2023-06-22T11:31:08;101065.30;;;39.00;29.86
76808;BME280;65758;45.458;11.062;2023-06-22T11:33:51;101057.29;;;39.00;29.73
76808;BME280;65758;45.458;11.062;2023-06-22T11:36:18;101059.83;;;38.96;29.78
76808;BME280;65758;45.458;11.062;2023-06-22T11:38:45;101056.72;;;38.93;30.10
76808;BME280;65758;45.458;11.062;2023-06-22T11:41:12;101057.13;;;38.91;30.12
76808;BME280;65758;45.458;11.062;2023-06-22T11:43:39;101054.77;;;38.88;30.23
76808;BME280;65758;45.458;11.062;2023-06-22T11:46:06;101052.33;;;38.85;30.24
76808;BME280;65758;45.458;11.062;2023-06-22T11:48:32;101045.04;;;38.89;30.00
76808;BME280;65758;45.458;11.062;2023-06-22T11:50:59;101044.02;;;38.96;29.75
76808;BME280;65758;45.458;11.062;2023-06-22T11:53:27;101040.27;;;38.98;29.88
76808;BME280;65758;45.458;11.062;2023-06-22T11:55:54;101035.75;;;39.04;29.80
76808;BME280;65758;45.458;11.062;2023-06-22T11:58:22;101034.18;;;39.11;29.55
76808;BME280;65758;45.458;11.062;2023-06-22T12:00:49;101031.89;;;39.12;29.50
76808;BME280;65758;45.458;11.062;2023-06-22T12:03:19;101027.73;;;39.07;30.04
76808;BME280;65758;45.458;11.062;2023-06-22T12:05:50;101024.95;;;39.06;30.37
76808;BME280;65758;45.458;11.062;2023-06-22T12:08:19;101024.94;;;39.10;30.44
76808;BME280;65758;45.458;11.062;2023-06-22T12:10:46;101014.44;;;39.14;30.37
76808;BME280;65758;45.458;11.062;2023-06-22T12:13:12;101010.92;;;39.16;30.82
76808;BME280;65758;45.458;11.062;2023-06-22T12:15:39;101012.39;;;39.15;30.15
76808;BME280;65758;45.458;11.062;2023-06-22T12:18:06;101008.57;;;39.11;29.92
76808;BME280;65758;45.458;11.062;2023-06-22T12:20:33;101006.30;;;39.08;30.26
76808;BME280;65758;45.458;11.062;2023-06-22T12:23:00;101001.01;;;39.00;30.03
76808;BME280;65758;45.458;11.062;2023-06-22T12:25:27;100995.93;;;38.99;30.33
76808;BME280;65758;45.458;11.062;2023-06-22T12:27:53;100990.60;;;39.03;30.15
76808;BME280;65758;45.458;11.062;2023-06-22T12:30:20;100988.29;;;39.09;30.37
76808;BME280;65758;45.458;11.062;2023-06-22T12:32:47;100986.62;;;39.16;30.60
76808;BME280;65758;45.458;11.062;2023-06-22T12:35:14;100984.64;;;39.19;29.92
76808;BME280;65758;45.458;11.062;2023-06-22T12:37:42;100982.20;;;39.19;29.80
76808;BME280;65758;45.458;11.062;2023-06-22T12:40:09;100978.52;;;39.16;29.54
76808;BME280;65758;45.458;11.062;2023-06-22T12:42:36;100971.13;;;39.21;29.63
76808;BME280;65758;45.458;11.062;2023-06-22T12:45:04;100974.63;;;39.24;29.59
76808;BME280;65758;45.458;11.062;2023-06-22T12:47:31;100974.08;;;39.20;29.70
76808;BME280;65758;45.458;11.062;2023-06-22T12:49:58;100969.94;;;39.17;29.95
76808;BME280;65758;45.458;11.062;2023-06-22T12:52:25;100971.98;;;39.17;30.11
76808;BME280;65758;45.458;11.062;2023-06-22T12:54:52;100965.43;;;39.16;29.82
76808;BME280;65758;45.458;11.062;2023-06-22T12:57:21;100961.17;;;39.15;30.06
76808;BME280;65758;45.458;11.062;2023-06-22T12:59:49;100958.46;;;39.18;30.03